sensor_id;sensor_type;location;lat;lon;timestamp;P1;durP1;ratioP1;P2;durP2;ratioP2
7523;SDS011;3803;51.666;7.630;2023-02-01T00:00:17;19.27;;;7.63;;
7523;SDS011;3803;51.666;7.630;2023-02-01T00:00:37;21.20;;;7.87;;
7523;SDS011;3803;51.666;7.630;2023-02-01T00:00:58;20.13;;;8.20;;
7523;SDS011;3803;51.666;7.630;2023-02-01T00:01:19;20.05;;;8.68;;
7523;SDS011;3803;51.666;7.630;2023-02-01T00:01:40;20.60;;;9.10;;
7523;SDS011;3803;51.666;7.630;2023-02-01T00:02:01;23.03;;;8.87;;
7523;SDS011;3803;51.666;7.630;2023-02-01T00:02:22;23.35;;;8.48;;
7523;SDS011;3803;51.666;7.630;2023-02-01T00:02:43;21.67;;;7.90;;
7523;SDS011;3803;51.666;7.630;2023-02-01T00:03:03;17.73;;;7.47;;
7523;SDS011;3803;51.666;7.630;2023-02-01T00:03:25;15.15;;;7.60;;
7523;SDS011;3803;51.666;7.630;2023-02-01T00:03:46;16.73;;;8.30;;
7523;SDS011;3803;51.666;7.630;2023-02-01T00:04:07;19.38;;;9.27;;
7523;SDS011;3803;51.666;7.630;2023-02-01T00:04:28;18.65;;;9.10;;
7523;SDS011;3803;51.666;7.630;2023-02-01T00:04:49;20.58;;;8.90;;
7523;SDS011;3803;51.666;7.630;2023-02-01T00:05:09;18.97;;;8.20;;
7523;SDS011;3803;51.666;7.630;2023-02-01T00:05:30;19.13;;;8.25;;
7523;SDS011;3803;51.666;7.630;2023-02-01T00:05:57;19.35;;;8.15;;
7523;SDS011;3803;51.666;7.630;2023-02-01T00:06:18;21.85;;;8.13;;
7523;SDS011;3803;51.666;7.630;2023-02-01T00:06:39;24.27;;;8.82;;
7523;SDS011;3803;51.666;7.630;2023-02-01T00:07:00;20.03;;;8.90;;
7523;SDS011;3803;51.666;7.630;2023-02-01T00:07:21;20.65;;;9.38;;
7523;SDS011;3803;51.666;7.630;2023-02-01T00:07:42;18.98;;;8.85;;
7523;SDS011;3803;51.666;7.630;2023-02-01T00:08:03;19.03;;;8.73;;
7523;SDS011;3803;51.666;7.630;2023-02-01T00:08:23;18.17;;;8.77;;
7523;SDS011;3803;51.666;7.630;2023-02-01T00:08:44;17.85;;;8.75;;
7523;SDS011;3803;51.666;7.630;2023-02-01T00:09:05;21.65;;;8.70;;
7523;SDS011;3803;51.666;7.630;2023-02-01T00:09:25;23.53;;;8.50;;
7523;SDS011;3803;51.666;7.630;2023-02-01T00:09:46;26.90;;;8.93;;
7523;SDS011;3803;51.666;7.630;2023-02-01T00:10:07;26.00;;;9.30;;
7523;SDS011;3803;51.666;7.630;2023-02-01T00:10:28;27.65;;;9.43;;
7523;SDS011;3803;51.666;7.630;2023-02-01T00:10:48;24.25;;;9.00;;
7523;SDS011;3803;51.666;7.630;2023-02-01T00:11:17;20.65;;;8.40;;
7523;SDS011;3803;51.666;7.630;2023-02-01T00:11:37;21.23;;;8.95;;
7523;SDS011;3803;51.666;7.630;2023-02-01T00:11:58;21.73;;;8.20;;
7523;SDS011;3803;51.666;7.630;2023-02-01T00:12:21;22.75;;;8.40;;
7523;SDS011;3803;51.666;7.630;2023-02-01T00:12:42;22.30;;;8.75;;
7523;SDS011;3803;51.666;7.630;2023-02-01T00:13:03;26.47;;;10.43;;
7523;SDS011;3803;51.666;7.630;2023-02-01T00:13:23;26.63;;;10.65;;
7523;SDS011;3803;51.666;7.630;2023-02-01T00:13:44;24.70;;;10.32;;
7523;SDS011;3803;51.666;7.630;2023-02-01T00:14:05;20.63;;;9.18;;
7523;SDS011;3803;51.666;7.630;2023-02-01T00:14:26;21.20;;;9.35;;
7523;SDS011;3803;51.666;7.630;2023-02-01T00:14:46;20.43;;;9.27;;
7523;SDS011;3803;51.666;7.630;2023-02-01T00:15:08;22.30;;;9.50;;
7523;SDS011;3803;51.666;7.630;2023-02-01T00:15:32;24.42;;;9.60;;
7523;SDS011;3803;51.666;7.630;2023-02-01T00:15:53;25.38;;;9.68;;
7523;SDS011;3803;51.666;7.630;2023-02-01T00:16:21;23.13;;;9.30;;
7523;SDS011;3803;51.666;7.630;2023-02-01T00:16:44;21.70;;;9.45;;
7523;SDS011;3803;51.666;7.630;2023-02-01T00:17:07;27.30;;;9.52;;
7523;SDS011;3803;51.666;7.630;2023-02-01T00:17:28;24.60;;;9.48;;
7523;SDS011;3803;51.666;7.630;2023-02-01T00:17:52;23.58;;;9.38;;
7523;SDS011;3803;51.666;7.630;2023-02-01T00:18:14;18.20;;;8.52;;
7523;SDS011;3803;51.666;7.630;2023-02-01T00:18:35;18.40;;;8.48;;
7523;SDS011;3803;51.666;7.630;2023-02-01T00:19:05;18.50;;;8.70;;
7523;SDS011;3803;51.666;7.630;2023-02-01T00:19:35;21.20;;;9.15;;
7523;SDS011;3803;51.666;7.630;2023-02-01T00:19:58;20.95;;;9.10;;
7523;SDS011;3803;51.666;7.630;2023-02-01T00:20:19;19.45;;;8.57;;
7523;SDS011;3803;51.666;7.630;2023-02-01T00:20:44;20.05;;;8.98;;
7523;SDS011;3803;51.666;7.630;2023-02-01T00:21:06;24.48;;;9.90;;
7523;SDS011;3803;51.666;7.630;2023-02-01T00:21:27;25.48;;;9.90;;
7523;SDS011;3803;51.666;7.630;2023-02-01T00:21:48;24.33;;;9.52;;
7523;SDS011;3803;51.666;7.630;2023-02-01T00:22:09;24.13;;;9.70;;
7523;SDS011;3803;51.666;7.630;2023-02-01T00:22:29;22.98;;;10.48;;
7523;SDS011;3803;51.666;7.630;2023-02-01T00:22:50;23.08;;;10.32;;
7523;SDS011;3803;51.666;7.630;2023-02-01T00:23:10;23.40;;;10.70;;
7523;SDS011;3803;51.666;7.630;2023-02-01T00:23:32;25.17;;;10.55;;
7523;SDS011;3803;51.666;7.630;2023-02-01T00:23:54;25.15;;;11.18;;
7523;SDS011;3803;51.666;7.630;2023-02-01T00:24:15;25.40;;;11.10;;
7523;SDS011;3803;51.666;7.630;2023-02-01T00:24:36;24.20;;;11.05;;
7523;SDS011;3803;51.666;7.630;2023-02-01T00:24:56;24.30;;;10.80;;
7523;SDS011;3803;51.666;7.630;2023-02-01T00:25:17;28.80;;;11.57;;
7523;SDS011;3803;51.666;7.630;2023-02-01T00:25:38;28.67;;;11.68;;
7523;SDS011;3803;51.666;7.630;2023-02-01T00:26:00;27.63;;;10.85;;
7523;SDS011;3803;51.666;7.630;2023-02-01T00:26:41;25.98;;;10.93;;
7523;SDS011;3803;51.666;7.630;2023-02-01T00:27:03;21.27;;;10.88;;
7523;SDS011;3803;51.666;7.630;2023-02-01T00:27:24;18.73;;;10.20;;
7523;SDS011;3803;51.666;7.630;2023-02-01T00:27:48;18.02;;;9.60;;
7523;SDS011;3803;51.666;7.630;2023-02-01T00:28:10;18.38;;;9.48;;
7523;SDS011;3803;51.666;7.630;2023-02-01T00:28:33;22.55;;;9.98;;
7523;SDS011;3803;51.666;7.630;2023-02-01T00:28:54;26.13;;;10.40;;
7523;SDS011;3803;51.666;7.630;2023-02-01T00:29:16;27.92;;;10.50;;
7523;SDS011;3803;51.666;7.630;2023-02-01T00:29:38;25.52;;;10.52;;
7523;SDS011;3803;51.666;7.630;2023-02-01T00:29:59;23.67;;;10.77;;
7523;SDS011;3803;51.666;7.630;2023-02-01T00:30:19;21.77;;;10.43;;
7523;SDS011;3803;51.666;7.630;2023-02-01T00:30:40;20.55;;;10.02;;
7523;SDS011;3803;51.666;7.630;2023-02-01T00:31:01;23.25;;;10.35;;
7523;SDS011;3803;51.666;7.630;2023-02-01T00:31:23;23.17;;;10.30;;
7523;SDS011;3803;51.666;7.630;2023-02-01T00:31:44;25.60;;;10.43;;
7523;SDS011;3803;51.666;7.630;2023-02-01T00:32:05;24.53;;;10.60;;
7523;SDS011;3803;51.666;7.630;2023-02-01T00:32:25;26.35;;;10.68;;
7523;SDS011;3803;51.666;7.630;2023-02-01T00:32:46;21.30;;;10.95;;
7523;SDS011;3803;51.666;7.630;2023-02-01T00:33:06;22.67;;;10.73;;
7523;SDS011;3803;51.666;7.630;2023-02-01T00:33:27;24.75;;;11.10;;
7523;SDS011;3803;51.666;7.630;2023-02-01T00:33:49;28.20;;;11.32;;
7523;SDS011;3803;51.666;7.630;2023-02-01T00:34:14;30.20;;;11.75;;
7523;SDS011;3803;51.666;7.630;2023-02-01T00:34:37;26.50;;;11.38;;
7523;SDS011;3803;51.666;7.630;2023-02-01T00:34:57;22.87;;;10.73;;
7523;SDS011;3803;51.666;7.630;2023-02-01T00:35:18;21.35;;;10.40;;
7523;SDS011;3803;51.666;7.630;2023-02-01T00:35:38;21.83;;;10.75;;
7523;SDS011;3803;51.666;7.630;2023-02-01T00:36:03;22.17;;;10.73;;
7523;SDS011;3803;51.666;7.630;2023-02-01T00:36:25;24.73;;;10.82;;
7523;SDS011;3803;51.666;7.630;2023-02-01T00:36:46;25.80;;;10.98;;
7523;SDS011;3803;51.666;7.630;2023-02-01T00:37:07;25.70;;;11.45;;
7523;SDS011;3803;51.666;7.630;2023-02-01T00:37:27;20.52;;;10.80;;
7523;SDS011;3803;51.666;7.630;2023-02-01T00:37:49;21.38;;;11.02;;
7523;SDS011;3803;51.666;7.630;2023-02-01T00:38:09;20.77;;;10.35;;
7523;SDS011;3803;51.666;7.630;2023-02-01T00:38:30;26.52;;;11.38;;
7523;SDS011;3803;51.666;7.630;2023-02-01T00:38:52;27.70;;;10.75;;
7523;SDS011;3803;51.666;7.630;2023-02-01T00:39:13;26.80;;;10.65;;
7523;SDS011;3803;51.666;7.630;2023-02-01T00:39:33;23.35;;;10.23;;
7523;SDS011;3803;51.666;7.630;2023-02-01T00:39:54;24.30;;;10.30;;
7523;SDS011;3803;51.666;7.630;2023-02-01T00:40:16;23.50;;;10.65;;
7523;SDS011;3803;51.666;7.630;2023-02-01T00:40:37;24.65;;;10.35;;
7523;SDS011;3803;51.666;7.630;2023-02-01T00:41:09;20.45;;;10.23;;
7523;SDS011;3803;51.666;7.630;2023-02-01T00:41:32;23.75;;;10.52;;
7523;SDS011;3803;51.666;7.630;2023-02-01T00:41:53;27.47;;;11.27;;
7523;SDS011;3803;51.666;7.630;2023-02-01T00:42:14;27.77;;;11.50;;
7523;SDS011;3803;51.666;7.630;2023-02-01T00:42:35;24.25;;;10.57;;
7523;SDS011;3803;51.666;7.630;2023-02-01T00:42:55;25.63;;;10.40;;
7523;SDS011;3803;51.666;7.630;2023-02-01T00:43:17;28.70;;;10.63;;
7523;SDS011;3803;51.666;7.630;2023-02-01T00:43:39;27.85;;;10.80;;
7523;SDS011;3803;51.666;7.630;2023-02-01T00:44:00;26.33;;;11.07;;
7523;SDS011;3803;51.666;7.630;2023-02-01T00:44:21;28.50;;;11.48;;
7523;SDS011;3803;51.666;7.630;2023-02-01T00:44:42;30.30;;;11.38;;
7523;SDS011;3803;51.666;7.630;2023-02-01T00:45:02;31.17;;;11.13;;
7523;SDS011;3803;51.666;7.630;2023-02-01T00:45:23;29.23;;;10.83;;
7523;SDS011;3803;51.666;7.630;2023-02-01T00:45:45;25.58;;;10.65;;
7523;SDS011;3803;51.666;7.630;2023-02-01T00:46:06;26.85;;;10.68;;
7523;SDS011;3803;51.666;7.630;2023-02-01T00:46:27;25.00;;;9.95;;
7523;SDS011;3803;51.666;7.630;2023-02-01T00:46:48;23.55;;;9.88;;
7523;SDS011;3803;51.666;7.630;2023-02-01T00:47:09;23.17;;;9.90;;
7523;SDS011;3803;51.666;7.630;2023-02-01T00:47:29;20.20;;;9.70;;
7523;SDS011;3803;51.666;7.630;2023-02-01T00:47:50;20.17;;;10.35;;
7523;SDS011;3803;51.666;7.630;2023-02-01T00:48:11;20.23;;;10.43;;
7523;SDS011;3803;51.666;7.630;2023-02-01T00:48:31;23.10;;;11.40;;
7523;SDS011;3803;51.666;7.630;2023-02-01T00:48:54;26.50;;;10.90;;
7523;SDS011;3803;51.666;7.630;2023-02-01T00:49:15;26.80;;;10.80;;
7523;SDS011;3803;51.666;7.630;2023-02-01T00:49:36;25.98;;;10.40;;
7523;SDS011;3803;51.666;7.630;2023-02-01T00:49:57;27.60;;;11.35;;
7523;SDS011;3803;51.666;7.630;2023-02-01T00:50:17;26.23;;;11.40;;
7523;SDS011;3803;51.666;7.630;2023-02-01T00:50:46;24.73;;;11.20;;
7523;SDS011;3803;51.666;7.630;2023-02-01T00:51:08;21.95;;;10.30;;
7523;SDS011;3803;51.666;7.630;2023-02-01T00:51:31;26.73;;;10.55;;
7523;SDS011;3803;51.666;7.630;2023-02-01T00:51:52;30.20;;;10.80;;
7523;SDS011;3803;51.666;7.630;2023-02-01T00:52:12;27.25;;;10.90;;
7523;SDS011;3803;51.666;7.630;2023-02-01T00:52:34;26.45;;;10.85;;
7523;SDS011;3803;51.666;7.630;2023-02-01T00:52:54;22.42;;;10.48;;
7523;SDS011;3803;51.666;7.630;2023-02-01T00:53:15;23.30;;;10.40;;
7523;SDS011;3803;51.666;7.630;2023-02-01T00:53:36;23.00;;;10.17;;
7523;SDS011;3803;51.666;7.630;2023-02-01T00:53:56;23.17;;;10.30;;
7523;SDS011;3803;51.666;7.630;2023-02-01T00:54:17;21.67;;;10.05;;
7523;SDS011;3803;51.666;7.630;2023-02-01T00:54:38;21.05;;;10.02;;
7523;SDS011;3803;51.666;7.630;2023-02-01T00:54:59;20.50;;;9.95;;
7523;SDS011;3803;51.666;7.630;2023-02-01T00:55:20;24.00;;;10.40;;
7523;SDS011;3803;51.666;7.630;2023-02-01T00:55:44;23.52;;;10.20;;
7523;SDS011;3803;51.666;7.630;2023-02-01T00:56:06;22.30;;;9.50;;
7523;SDS011;3803;51.666;7.630;2023-02-01T00:56:27;20.58;;;9.30;;
7523;SDS011;3803;51.666;7.630;2023-02-01T00:56:47;20.63;;;9.73;;
7523;SDS011;3803;51.666;7.630;2023-02-01T00:57:08;20.73;;;9.90;;
7523;SDS011;3803;51.666;7.630;2023-02-01T00:57:29;17.27;;;9.23;;
7523;SDS011;3803;51.666;7.630;2023-02-01T00:57:49;17.73;;;9.10;;
7523;SDS011;3803;51.666;7.630;2023-02-01T00:58:10;17.98;;;9.43;;
7523;SDS011;3803;51.666;7.630;2023-02-01T00:58:32;19.73;;;9.60;;
7523;SDS011;3803;51.666;7.630;2023-02-01T00:58:53;23.35;;;9.90;;
7523;SDS011;3803;51.666;7.630;2023-02-01T00:59:13;23.47;;;9.70;;
7523;SDS011;3803;51.666;7.630;2023-02-01T00:59:34;23.08;;;9.63;;
7523;SDS011;3803;51.666;7.630;2023-02-01T00:59:54;20.07;;;9.30;;
7523;SDS011;3803;51.666;7.630;2023-02-01T01:00:15;20.80;;;9.40;;
7523;SDS011;3803;51.666;7.630;2023-02-01T01:00:36;22.38;;;9.80;;
7523;SDS011;3803;51.666;7.630;2023-02-01T01:01:05;24.48;;;9.35;;
7523;SDS011;3803;51.666;7.630;2023-02-01T01:01:30;23.63;;;8.45;;
7523;SDS011;3803;51.666;7.630;2023-02-01T01:01:51;22.20;;;8.07;;
7523;SDS011;3803;51.666;7.630;2023-02-01T01:02:11;18.58;;;8.10;;
7523;SDS011;3803;51.666;7.630;2023-02-01T01:02:34;20.27;;;8.88;;
7523;SDS011;3803;51.666;7.630;2023-02-01T01:02:54;20.47;;;8.90;;
7523;SDS011;3803;51.666;7.630;2023-02-01T01:03:16;20.77;;;9.13;;
7523;SDS011;3803;51.666;7.630;2023-02-01T01:03:40;18.77;;;8.52;;
7523;SDS011;3803;51.666;7.630;2023-02-01T01:04:02;19.05;;;8.57;;
7523;SDS011;3803;51.666;7.630;2023-02-01T01:04:23;19.70;;;8.90;;
7523;SDS011;3803;51.666;7.630;2023-02-01T01:04:49;19.17;;;8.70;;
7523;SDS011;3803;51.666;7.630;2023-02-01T01:05:09;19.70;;;8.73;;
7523;SDS011;3803;51.666;7.630;2023-02-01T01:05:31;20.15;;;8.38;;
7523;SDS011;3803;51.666;7.630;2023-02-01T01:05:56;20.17;;;8.30;;
7523;SDS011;3803;51.666;7.630;2023-02-01T01:06:19;18.90;;;8.10;;
7523;SDS011;3803;51.666;7.630;2023-02-01T01:06:41;17.58;;;8.05;;
7523;SDS011;3803;51.666;7.630;2023-02-01T01:07:02;24.43;;;8.80;;
7523;SDS011;3803;51.666;7.630;2023-02-01T01:07:22;24.60;;;8.80;;
7523;SDS011;3803;51.666;7.630;2023-02-01T01:07:43;25.95;;;8.68;;
7523;SDS011;3803;51.666;7.630;2023-02-01T01:08:04;19.40;;;7.97;;
7523;SDS011;3803;51.666;7.630;2023-02-01T01:08:24;20.83;;;8.13;;
7523;SDS011;3803;51.666;7.630;2023-02-01T01:08:45;20.92;;;8.38;;
7523;SDS011;3803;51.666;7.630;2023-02-01T01:09:07;22.63;;;8.30;;
7523;SDS011;3803;51.666;7.630;2023-02-01T01:09:28;19.17;;;7.75;;
7523;SDS011;3803;51.666;7.630;2023-02-01T01:09:48;20.37;;;7.47;;
7523;SDS011;3803;51.666;7.630;2023-02-01T01:10:09;19.20;;;7.13;;
7523;SDS011;3803;51.666;7.630;2023-02-01T01:10:32;20.98;;;7.10;;
7523;SDS011;3803;51.666;7.630;2023-02-01T01:10:52;18.60;;;7.20;;
7523;SDS011;3803;51.666;7.630;2023-02-01T01:11:15;16.27;;;7.73;;
7523;SDS011;3803;51.666;7.630;2023-02-01T01:11:40;15.88;;;7.32;;
7523;SDS011;3803;51.666;7.630;2023-02-01T01:12:01;19.77;;;7.50;;
7523;SDS011;3803;51.666;7.630;2023-02-01T01:12:24;22.02;;;7.30;;
7523;SDS011;3803;51.666;7.630;2023-02-01T01:12:45;20.70;;;7.50;;
7523;SDS011;3803;51.666;7.630;2023-02-01T01:13:05;19.23;;;7.45;;
7523;SDS011;3803;51.666;7.630;2023-02-01T01:13:26;17.42;;;7.20;;
7523;SDS011;3803;51.666;7.630;2023-02-01T01:13:48;17.92;;;7.18;;
7523;SDS011;3803;51.666;7.630;2023-02-01T01:14:10;16.80;;;6.60;;
7523;SDS011;3803;51.666;7.630;2023-02-01T01:14:32;20.15;;;7.25;;
7523;SDS011;3803;51.666;7.630;2023-02-01T01:14:53;20.38;;;7.30;;
7523;SDS011;3803;51.666;7.630;2023-02-01T01:15:13;18.20;;;7.47;;
7523;SDS011;3803;51.666;7.630;2023-02-01T01:15:37;17.70;;;7.17;;
7523;SDS011;3803;51.666;7.630;2023-02-01T01:16:00;19.00;;;7.00;;
7523;SDS011;3803;51.666;7.630;2023-02-01T01:16:23;16.95;;;7.03;;
7523;SDS011;3803;51.666;7.630;2023-02-01T01:16:45;15.40;;;6.80;;
7523;SDS011;3803;51.666;7.630;2023-02-01T01:17:05;14.65;;;6.45;;
7523;SDS011;3803;51.666;7.630;2023-02-01T01:17:26;18.57;;;6.60;;
7523;SDS011;3803;51.666;7.630;2023-02-01T01:17:46;19.03;;;6.90;;
7523;SDS011;3803;51.666;7.630;2023-02-01T01:18:07;22.83;;;7.95;;
7523;SDS011;3803;51.666;7.630;2023-02-01T01:18:29;20.13;;;8.02;;
7523;SDS011;3803;51.666;7.630;2023-02-01T01:18:51;17.73;;;7.45;;
7523;SDS011;3803;51.666;7.630;2023-02-01T01:19:12;16.02;;;6.53;;
7523;SDS011;3803;51.666;7.630;2023-02-01T01:19:32;19.30;;;6.90;;
7523;SDS011;3803;51.666;7.630;2023-02-01T01:19:53;19.83;;;6.60;;
7523;SDS011;3803;51.666;7.630;2023-02-01T01:20:14;19.48;;;6.60;;
7523;SDS011;3803;51.666;7.630;2023-02-01T01:20:35;21.92;;;6.53;;
7523;SDS011;3803;51.666;7.630;2023-02-01T01:20:57;23.38;;;6.65;;
7523;SDS011;3803;51.666;7.630;2023-02-01T01:21:19;22.42;;;7.20;;
7523;SDS011;3803;51.666;7.630;2023-02-01T01:21:39;20.10;;;6.97;;
7523;SDS011;3803;51.666;7.630;2023-02-01T01:22:00;16.37;;;6.70;;
7523;SDS011;3803;51.666;7.630;2023-02-01T01:22:20;15.82;;;6.47;;
7523;SDS011;3803;51.666;7.630;2023-02-01T01:22:41;14.20;;;6.05;;
7523;SDS011;3803;51.666;7.630;2023-02-01T01:23:02;17.20;;;6.20;;
7523;SDS011;3803;51.666;7.630;2023-02-01T01:23:23;20.60;;;6.55;;
7523;SDS011;3803;51.666;7.630;2023-02-01T01:23:44;18.57;;;6.60;;
7523;SDS011;3803;51.666;7.630;2023-02-01T01:24:05;18.80;;;6.55;;
7523;SDS011;3803;51.666;7.630;2023-02-01T01:24:26;17.50;;;6.13;;
7523;SDS011;3803;51.666;7.630;2023-02-01T01:24:46;17.92;;;6.80;;
7523;SDS011;3803;51.666;7.630;2023-02-01T01:25:07;14.90;;;6.60;;
7523;SDS011;3803;51.666;7.630;2023-02-01T01:25:28;16.15;;;6.60;;
7523;SDS011;3803;51.666;7.630;2023-02-01T01:25:55;13.75;;;5.70;;
7523;SDS011;3803;51.666;7.630;2023-02-01T01:26:16;15.57;;;5.50;;
7523;SDS011;3803;51.666;7.630;2023-02-01T01:26:39;16.17;;;5.28;;
7523;SDS011;3803;51.666;7.630;2023-02-01T01:26:59;17.90;;;5.80;;
7523;SDS011;3803;51.666;7.630;2023-02-01T01:27:20;14.73;;;5.78;;
7523;SDS011;3803;51.666;7.630;2023-02-01T01:27:44;16.35;;;5.93;;
7523;SDS011;3803;51.666;7.630;2023-02-01T01:28:05;15.05;;;5.68;;
7523;SDS011;3803;51.666;7.630;2023-02-01T01:28:26;15.90;;;5.40;;
7523;SDS011;3803;51.666;7.630;2023-02-01T01:28:47;17.63;;;5.40;;
7523;SDS011;3803;51.666;7.630;2023-02-01T01:29:08;18.83;;;5.50;;
7523;SDS011;3803;51.666;7.630;2023-02-01T01:29:29;17.90;;;5.80;;
7523;SDS011;3803;51.666;7.630;2023-02-01T01:29:50;14.00;;;5.87;;
7523;SDS011;3803;51.666;7.630;2023-02-01T01:30:11;16.30;;;6.00;;
7523;SDS011;3803;51.666;7.630;2023-02-01T01:30:32;16.73;;;5.68;;
7523;SDS011;3803;51.666;7.630;2023-02-01T01:30:54;17.98;;;5.20;;
7523;SDS011;3803;51.666;7.630;2023-02-01T01:31:15;17.23;;;5.00;;
7523;SDS011;3803;51.666;7.630;2023-02-01T01:31:38;18.77;;;5.07;;
7523;SDS011;3803;51.666;7.630;2023-02-01T01:31:58;19.52;;;5.43;;
7523;SDS011;3803;51.666;7.630;2023-02-01T01:32:19;16.27;;;5.03;;
7523;SDS011;3803;51.666;7.630;2023-02-01T01:32:40;15.20;;;5.20;;
7523;SDS011;3803;51.666;7.630;2023-02-01T01:33:00;16.42;;;5.18;;
7523;SDS011;3803;51.666;7.630;2023-02-01T01:33:23;17.98;;;5.47;;
7523;SDS011;3803;51.666;7.630;2023-02-01T01:33:44;17.95;;;5.38;;
7523;SDS011;3803;51.666;7.630;2023-02-01T01:34:07;13.93;;;5.15;;
7523;SDS011;3803;51.666;7.630;2023-02-01T01:34:28;15.40;;;4.90;;
7523;SDS011;3803;51.666;7.630;2023-02-01T01:34:49;13.43;;;4.25;;
7523;SDS011;3803;51.666;7.630;2023-02-01T01:35:10;14.80;;;4.60;;
7523;SDS011;3803;51.666;7.630;2023-02-01T01:35:31;14.02;;;4.60;;
7523;SDS011;3803;51.666;7.630;2023-02-01T01:35:53;12.60;;;4.70;;
7523;SDS011;3803;51.666;7.630;2023-02-01T01:36:13;12.93;;;4.70;;
7523;SDS011;3803;51.666;7.630;2023-02-01T01:36:34;12.93;;;5.00;;
7523;SDS011;3803;51.666;7.630;2023-02-01T01:36:54;12.52;;;4.90;;
7523;SDS011;3803;51.666;7.630;2023-02-01T01:37:15;13.10;;;4.78;;
7523;SDS011;3803;51.666;7.630;2023-02-01T01:37:36;13.88;;;4.88;;
7523;SDS011;3803;51.666;7.630;2023-02-01T01:37:58;12.98;;;4.75;;
7523;SDS011;3803;51.666;7.630;2023-02-01T01:38:19;11.05;;;4.55;;
7523;SDS011;3803;51.666;7.630;2023-02-01T01:38:40;12.10;;;4.40;;
7523;SDS011;3803;51.666;7.630;2023-02-01T01:39:01;15.05;;;4.88;;
7523;SDS011;3803;51.666;7.630;2023-02-01T01:39:21;18.50;;;4.90;;
7523;SDS011;3803;51.666;7.630;2023-02-01T01:39:42;19.08;;;4.97;;
7523;SDS011;3803;51.666;7.630;2023-02-01T01:40:03;19.05;;;4.50;;
7523;SDS011;3803;51.666;7.630;2023-02-01T01:40:26;14.70;;;4.15;;
7523;SDS011;3803;51.666;7.630;2023-02-01T01:40:47;12.60;;;4.50;;
7523;SDS011;3803;51.666;7.630;2023-02-01T01:41:12;10.50;;;4.40;;
7523;SDS011;3803;51.666;7.630;2023-02-01T01:41:36;9.85;;;4.35;;
7523;SDS011;3803;51.666;7.630;2023-02-01T01:42:08;12.50;;;4.35;;
7523;SDS011;3803;51.666;7.630;2023-02-01T01:42:38;15.90;;;4.70;;
7523;SDS011;3803;51.666;7.630;2023-02-01T01:43:01;13.70;;;4.50;;
7523;SDS011;3803;51.666;7.630;2023-02-01T01:43:22;12.10;;;4.40;;
7523;SDS011;3803;51.666;7.630;2023-02-01T01:43:47;17.45;;;4.80;;
7523;SDS011;3803;51.666;7.630;2023-02-01T01:45:31;12.43;;;4.28;;
7523;SDS011;3803;51.666;7.630;2023-02-01T01:45:54;7.55;;;3.80;;
7523;SDS011;3803;51.666;7.630;2023-02-01T01:46:19;9.18;;;4.05;;
7523;SDS011;3803;51.666;7.630;2023-02-01T01:46:49;10.80;;;4.82;;
7523;SDS011;3803;51.666;7.630;2023-02-01T01:47:10;11.97;;;5.00;;
7523;SDS011;3803;51.666;7.630;2023-02-01T01:47:33;13.90;;;4.53;;
7523;SDS011;3803;51.666;7.630;2023-02-01T01:48:59;12.82;;;4.40;;
7523;SDS011;3803;51.666;7.630;2023-02-01T01:49:26;10.70;;;3.90;;
7523;SDS011;3803;51.666;7.630;2023-02-01T01:49:47;9.57;;;3.50;;
7523;SDS011;3803;51.666;7.630;2023-02-01T01:50:09;10.47;;;3.40;;
7523;SDS011;3803;51.666;7.630;2023-02-01T01:51:38;11.95;;;4.13;;
7523;SDS011;3803;51.666;7.630;2023-02-01T01:52:03;12.50;;;4.22;;
7523;SDS011;3803;51.666;7.630;2023-02-01T01:52:24;13.98;;;4.00;;
7523;SDS011;3803;51.666;7.630;2023-02-01T01:52:46;14.43;;;3.97;;
7523;SDS011;3803;51.666;7.630;2023-02-01T01:53:11;14.82;;;4.18;;
7523;SDS011;3803;51.666;7.630;2023-02-01T01:53:42;15.23;;;4.30;;
7523;SDS011;3803;51.666;7.630;2023-02-01T01:54:15;13.80;;;3.78;;
7523;SDS011;3803;51.666;7.630;2023-02-01T01:54:39;10.52;;;3.60;;
7523;SDS011;3803;51.666;7.630;2023-02-01T01:55:03;10.20;;;3.88;;
7523;SDS011;3803;51.666;7.630;2023-02-01T01:55:26;11.25;;;4.00;;
7523;SDS011;3803;51.666;7.630;2023-02-01T01:55:50;15.57;;;4.15;;
7523;SDS011;3803;51.666;7.630;2023-02-01T01:56:13;16.25;;;3.50;;
7523;SDS011;3803;51.666;7.630;2023-02-01T01:56:35;18.10;;;3.72;;
7523;SDS011;3803;51.666;7.630;2023-02-01T01:57:00;16.10;;;3.88;;
7523;SDS011;3803;51.666;7.630;2023-02-01T01:57:29;13.43;;;3.72;;
7523;SDS011;3803;51.666;7.630;2023-02-01T01:57:59;10.10;;;3.40;;
7523;SDS011;3803;51.666;7.630;2023-02-01T01:58:26;10.98;;;3.70;;
7523;SDS011;3803;51.666;7.630;2023-02-01T01:58:49;13.43;;;3.90;;
7523;SDS011;3803;51.666;7.630;2023-02-01T01:59:10;11.60;;;3.70;;
7523;SDS011;3803;51.666;7.630;2023-02-01T01:59:30;12.67;;;3.70;;
7523;SDS011;3803;51.666;7.630;2023-02-01T01:59:56;11.60;;;3.50;;
7523;SDS011;3803;51.666;7.630;2023-02-01T02:00:47;10.10;;;3.17;;
7523;SDS011;3803;51.666;7.630;2023-02-01T02:01:08;11.27;;;3.33;;
7523;SDS011;3803;51.666;7.630;2023-02-01T02:01:29;15.77;;;3.92;;
7523;SDS011;3803;51.666;7.630;2023-02-01T02:01:49;18.08;;;4.00;;
7523;SDS011;3803;51.666;7.630;2023-02-01T02:02:11;16.58;;;4.05;;
7523;SDS011;3803;51.666;7.630;2023-02-01T02:02:31;15.27;;;3.80;;
7523;SDS011;3803;51.666;7.630;2023-02-01T02:02:58;12.65;;;3.60;;
7523;SDS011;3803;51.666;7.630;2023-02-01T02:03:27;10.75;;;3.30;;
7523;SDS011;3803;51.666;7.630;2023-02-01T02:03:54;10.50;;;3.78;;
7523;SDS011;3803;51.666;7.630;2023-02-01T02:04:15;13.68;;;3.97;;
7523;SDS011;3803;51.666;7.630;2023-02-01T02:04:37;18.58;;;4.30;;
7523;SDS011;3803;51.666;7.630;2023-02-01T02:05:57;16.88;;;3.60;;
7523;SDS011;3803;51.666;7.630;2023-02-01T02:06:24;16.98;;;3.83;;
7523;SDS011;3803;51.666;7.630;2023-02-01T02:08:28;15.93;;;3.60;;
7523;SDS011;3803;51.666;7.630;2023-02-01T02:08:49;16.17;;;3.65;;
7523;SDS011;3803;51.666;7.630;2023-02-01T02:09:10;14.57;;;3.30;;
7523;SDS011;3803;51.666;7.630;2023-02-01T02:09:31;10.98;;;3.45;;
7523;SDS011;3803;51.666;7.630;2023-02-01T02:09:51;10.87;;;3.97;;
7523;SDS011;3803;51.666;7.630;2023-02-01T02:10:13;11.63;;;4.00;;
7523;SDS011;3803;51.666;7.630;2023-02-01T02:10:35;10.07;;;3.35;;
7523;SDS011;3803;51.666;7.630;2023-02-01T02:11:16;9.05;;;3.13;;
7523;SDS011;3803;51.666;7.630;2023-02-01T02:11:37;11.48;;;3.63;;
7523;SDS011;3803;51.666;7.630;2023-02-01T02:11:58;11.20;;;3.70;;
7523;SDS011;3803;51.666;7.630;2023-02-01T02:12:19;14.75;;;3.95;;
7523;SDS011;3803;51.666;7.630;2023-02-01T02:12:40;14.73;;;3.83;;
7523;SDS011;3803;51.666;7.630;2023-02-01T02:13:04;17.52;;;4.00;;
7523;SDS011;3803;51.666;7.630;2023-02-01T02:13:25;17.57;;;4.03;;
7523;SDS011;3803;51.666;7.630;2023-02-01T02:13:57;14.50;;;4.15;;
7523;SDS011;3803;51.666;7.630;2023-02-01T02:14:19;9.60;;;3.70;;
7523;SDS011;3803;51.666;7.630;2023-02-01T02:14:43;13.52;;;3.60;;
7523;SDS011;3803;51.666;7.630;2023-02-01T02:15:05;15.97;;;3.67;;
7523;SDS011;3803;51.666;7.630;2023-02-01T02:15:27;18.73;;;3.58;;
7523;SDS011;3803;51.666;7.630;2023-02-01T02:17:41;12.75;;;4.28;;
7523;SDS011;3803;51.666;7.630;2023-02-01T02:18:12;15.40;;;3.70;;
7523;SDS011;3803;51.666;7.630;2023-02-01T02:18:44;16.63;;;3.88;;
7523;SDS011;3803;51.666;7.630;2023-02-01T02:21:14;14.45;;;4.05;;
7523;SDS011;3803;51.666;7.630;2023-02-01T02:25:28;13.88;;;4.05;;
7523;SDS011;3803;51.666;7.630;2023-02-01T02:26:21;19.05;;;4.85;;
7523;SDS011;3803;51.666;7.630;2023-02-01T02:28:11;12.75;;;3.88;;
7523;SDS011;3803;51.666;7.630;2023-02-01T02:29:01;10.38;;;3.83;;
7523;SDS011;3803;51.666;7.630;2023-02-01T02:31:42;14.32;;;3.70;;
7523;SDS011;3803;51.666;7.630;2023-02-01T02:36:42;15.68;;;4.10;;
7523;SDS011;3803;51.666;7.630;2023-02-01T02:38:05;11.18;;;4.00;;
7523;SDS011;3803;51.666;7.630;2023-02-01T02:39:58;14.25;;;3.20;;
7523;SDS011;3803;51.666;7.630;2023-02-01T02:40:31;12.57;;;3.47;;
7523;SDS011;3803;51.666;7.630;2023-02-01T02:41:03;12.75;;;3.85;;
7523;SDS011;3803;51.666;7.630;2023-02-01T02:42:26;14.20;;;4.03;;
7523;SDS011;3803;51.666;7.630;2023-02-01T02:43:59;12.38;;;3.70;;